Time;durP1;ratioP1;P1;durP2;ratioP2;P2;SDS_P1;SDS_P2;PMS_P1;PMS_P2;Temp;Humidity;BMP_temperature;BMP_pressure;BME280_temperature;BME280_humidity;BME280_pressure;Samples;Min_cycle;Max_cycle;Signal;HPM_P1;HPM_P2
2023/12/03 00:01:42;;;;;;;29.10;16.52;;;;;;;;;;5055514;28;20115;-63
2023/12/03 00:04:07;;;;;;;33.83;17.30;;;;;;;;;;5054205;28;20150;-64
2023/12/03 00:06:32;;;;;;;32.78;18.30;;;;;;;;;;5051694;28;20033;-63
2023/12/03 00:08:58;;;;;;;34.58;17.73;;;;;;;;;;5053253;28;20072;-64
2023/12/03 00:11:23;;;;;;;35.45;16.73;;;;;;;;;;5057625;28;20038;-64
2023/12/03 00:13:48;;;;;;;36.80;18.02;;;;;;;;;;5061865;28;20036;-64
2023/12/03 00:16:14;;;;;;;37.17;18.15;;;;;;;;;;5053843;28;20024;-63
2023/12/03 00:18:39;;;;;;;38.88;17.55;;;;;;;;;;5052857;28;20025;-64
2023/12/03 00:21:04;;;;;;;35.10;17.80;;;;;;;;;;5053582;28;20032;-63
2023/12/03 00:23:29;;;;;;;32.92;17.40;;;;;;;;;;5053338;28;20028;-64
2023/12/03 00:25:55;;;;;;;35.22;18.35;;;;;;;;;;5053084;28;20365;-63
2023/12/03 00:28:20;;;;;;;29.90;16.65;;;;;;;;;;5053630;28;20023;-63
2023/12/03 00:30:45;;;;;;;37.58;16.80;;;;;;;;;;5065254;28;20033;-64
2023/12/03 00:33:10;;;;;;;38.50;18.10;;;;;;;;;;5053624;28;20029;-64
2023/12/03 00:35:36;;;;;;;41.10;16.85;;;;;;;;;;5053705;28;20432;-64
2023/12/03 00:38:01;;;;;;;39.03;17.65;;;;;;;;;;5053206;28;20021;-64
2023/12/03 00:40:26;;;;;;;35.50;18.45;;;;;;;;;;5054234;28;20519;-64
2023/12/03 00:42:54;;;;;;;34.30;19.17;;;;;;;;;;5060365;28;20108;-64
2023/12/03 00:45:19;;;;;;;35.97;17.33;;;;;;;;;;5056237;28;20028;-64
2023/12/03 00:47:44;;;;;;;26.58;16.45;;;;;;;;;;5059465;28;20028;-63
2023/12/03 00:50:09;;;;;;;37.83;16.85;;;;;;;;;;5057558;28;20025;-64
2023/12/03 00:52:34;;;;;;;37.63;18.65;;;;;;;;;;5052843;28;20032;-64
2023/12/03 00:55:02;;;;;;;38.30;18.08;;;;;;;;;;5065962;28;20066;-64
2023/12/03 00:57:27;;;;;;;32.28;17.58;;;;;;;;;;5052669;28;20021;-64
2023/12/03 00:59:53;;;;;;;29.63;15.75;;;;;;;;;;5053103;28;20040;-64
2023/12/03 01:02:18;;;;;;;42.78;17.98;;;;;;;;;;5052884;28;20501;-64
2023/12/03 01:04:43;;;;;;;34.38;16.52;;;;;;;;;;5062159;28;20028;-64
2023/12/03 01:07:08;;;;;;;36.58;17.52;;;;;;;;;;5055541;28;20025;-64
2023/12/03 01:09:34;;;;;;;33.72;18.05;;;;;;;;;;5061769;28;20031;-64
2023/12/03 01:12:00;;;;;;;34.45;16.80;;;;;;;;;;5062002;28;20116;-64
2023/12/03 01:14:26;;;;;;;35.53;18.42;;;;;;;;;;5055813;28;20016;-64
2023/12/03 01:16:51;;;;;;;35.17;17.50;;;;;;;;;;5061804;28;20428;-64
2023/12/03 01:19:16;;;;;;;39.70;17.50;;;;;;;;;;5052213;28;20017;-64
2023/12/03 01:21:41;;;;;;;31.90;17.05;;;;;;;;;;5052054;28;20021;-64
2023/12/03 01:24:07;;;;;;;34.83;17.70;;;;;;;;;;5052337;28;20029;-64
2023/12/03 01:26:32;;;;;;;35.78;17.20;;;;;;;;;;5054762;28;20032;-63
2023/12/03 01:28:58;;;;;;;33.72;17.63;;;;;;;;;;5059035;28;20489;-64
2023/12/03 01:31:23;;;;;;;41.17;17.63;;;;;;;;;;5063717;28;20024;-64
2023/12/03 01:33:48;;;;;;;32.17;16.83;;;;;;;;;;5066277;28;20075;-63
2023/12/03 01:36:13;;;;;;;35.72;16.92;;;;;;;;;;5061722;28;20025;-64
2023/12/03 01:38:38;;;;;;;36.22;18.92;;;;;;;;;;5052091;28;20063;-64
2023/12/03 01:41:04;;;;;;;38.25;18.13;;;;;;;;;;5058877;28;20096;-64
2023/12/03 01:43:29;;;;;;;33.03;17.08;;;;;;;;;;5064550;28;20029;-64
2023/12/03 01:45:54;;;;;;;33.65;17.60;;;;;;;;;;5051392;28;20028;-64
2023/12/03 01:48:19;;;;;;;37.90;19.20;;;;;;;;;;5061204;28;20034;-63
2023/12/03 01:50:45;;;;;;;38.13;18.33;;;;;;;;;;5049614;28;20051;-65
2023/12/03 01:53:11;;;;;;;36.10;19.30;;;;;;;;;;5065103;28;20040;-64
2023/12/03 01:55:36;;;;;;;35.45;17.67;;;;;;;;;;5051865;28;20082;-64
2023/12/03 01:58:02;;;;;;;34.67;18.88;;;;;;;;;;5052366;28;20028;-64
2023/12/03 02:00:27;;;;;;;40.00;19.30;;;;;;;;;;5050355;28;20026;-64
2023/12/03 02:02:52;;;;;;;36.30;17.17;;;;;;;;;;5057648;28;20029;-64
2023/12/03 02:05:17;;;;;;;35.80;18.38;;;;;;;;;;5064277;28;20030;-64
2023/12/03 02:07:43;;;;;;;33.78;18.25;;;;;;;;;;5059688;28;20063;-64
2023/12/03 02:10:08;;;;;;;40.63;19.30;;;;;;;;;;5059540;28;20016;-64
2023/12/03 02:12:33;;;;;;;38.03;17.58;;;;;;;;;;5056063;28;20096;-64
2023/12/03 02:14:59;;;;;;;39.22;18.35;;;;;;;;;;5052141;28;20066;-64
2023/12/03 02:17:24;;;;;;;36.78;17.90;;;;;;;;;;5051918;28;20523;-64
2023/12/03 02:19:49;;;;;;;35.92;18.55;;;;;;;;;;5062998;28;20509;-64
2023/12/03 02:22:14;;;;;;;34.45;18.42;;;;;;;;;;5050505;28;20440;-64
2023/12/03 02:24:39;;;;;;;36.25;17.73;;;;;;;;;;5051201;28;20490;-64
2023/12/03 02:27:05;;;;;;;33.17;16.45;;;;;;;;;;5051336;28;20391;-64
2023/12/03 02:29:30;;;;;;;39.03;17.53;;;;;;;;;;5051329;28;20376;-63
2023/12/03 02:31:55;;;;;;;34.75;18.25;;;;;;;;;;5052599;28;20279;-64
2023/12/03 02:34:21;;;;;;;34.80;16.10;;;;;;;;;;5051811;28;20021;-64
2023/12/03 02:36:46;;;;;;;34.50;16.55;;;;;;;;;;5051333;28;20048;-64
2023/12/03 02:39:11;;;;;;;31.25;16.13;;;;;;;;;;5046848;28;20024;-64
2023/12/03 02:41:36;;;;;;;33.90;17.10;;;;;;;;;;5051258;28;20028;-64
2023/12/03 02:44:01;;;;;;;33.28;15.75;;;;;;;;;;5047430;28;20029;-64
2023/12/03 02:46:27;;;;;;;28.67;15.52;;;;;;;;;;5050734;28;20025;-64
2023/12/03 02:48:52;;;;;;;31.63;16.75;;;;;;;;;;5046520;28;20021;-64
2023/12/03 02:51:17;;;;;;;28.42;15.13;;;;;;;;;;5047316;28;20028;-64
2023/12/03 02:53:43;;;;;;;32.38;16.10;;;;;;;;;;5061682;28;20025;-64
2023/12/03 02:56:08;;;;;;;28.90;14.63;;;;;;;;;;5048906;28;20019;-64
2023/12/03 02:58:35;;;;;;;33.08;15.55;;;;;;;;;;5047975;28;20104;-64
2023/12/03 03:01:00;;;;;;;29.33;15.20;;;;;;;;;;5051087;28;20063;-64
2023/12/03 03:03:25;;;;;;;31.83;15.68;;;;;;;;;;5051004;28;20392;-64
2023/12/03 03:05:50;;;;;;;29.65;14.95;;;;;;;;;;5055043;28;20379;-64
2023/12/03 03:08:16;;;;;;;29.23;16.02;;;;;;;;;;5050457;28;20370;-64
2023/12/03 03:10:41;;;;;;;37.42;17.38;;;;;;;;;;5063259;28;20379;-64
2023/12/03 03:13:08;;;;;;;29.10;14.68;;;;;;;;;;5050868;28;20021;-64
2023/12/03 03:15:33;;;;;;;26.95;13.70;;;;;;;;;;5050891;28;20029;-64
2023/12/03 03:17:59;;;;;;;28.10;14.27;;;;;;;;;;5053073;28;20021;-64
2023/12/03 03:20:24;;;;;;;30.45;15.35;;;;;;;;;;5065618;28;20502;-65
2023/12/03 03:22:49;;;;;;;26.67;14.70;;;;;;;;;;5052998;28;20372;-64
2023/12/03 03:25:16;;;;;;;35.60;15.05;;;;;;;;;;5050336;28;20395;-64
2023/12/03 03:27:41;;;;;;;30.83;15.13;;;;;;;;;;5054324;28;20452;-63
2023/12/03 03:30:07;;;;;;;29.25;15.10;;;;;;;;;;5060942;28;20083;-64
2023/12/03 03:32:32;;;;;;;28.63;13.60;;;;;;;;;;5065690;28;20057;-64
2023/12/03 03:34:57;;;;;;;22.58;12.95;;;;;;;;;;5053901;28;20028;-63
2023/12/03 03:37:23;;;;;;;31.83;15.70;;;;;;;;;;5053658;28;20021;-64
2023/12/03 03:39:48;;;;;;;28.75;14.80;;;;;;;;;;5059660;28;20021;-64
2023/12/03 03:42:13;;;;;;;28.55;13.40;;;;;;;;;;5054293;28;20047;-65
2023/12/03 03:44:38;;;;;;;31.38;16.23;;;;;;;;;;5053333;28;20312;-64
2023/12/03 03:47:04;;;;;;;24.38;13.80;;;;;;;;;;5053684;28;20067;-64
2023/12/03 03:49:29;;;;;;;28.75;14.63;;;;;;;;;;5058356;28;20033;-65
2023/12/03 03:51:54;;;;;;;33.53;14.48;;;;;;;;;;5053651;28;20079;-64
2023/12/03 03:54:20;;;;;;;35.08;14.30;;;;;;;;;;5047339;28;20063;-64
2023/12/03 03:56:48;;;;;;;26.85;14.38;;;;;;;;;;5048365;28;20025;-64
2023/12/03 03:59:13;;;;;;;28.30;13.30;;;;;;;;;;5047703;28;20084;-64
2023/12/03 04:01:45;;;;;;;22.92;13.10;;;;;;;;;;5052784;28;20032;-65
2023/12/03 04:04:10;;;;;;;32.55;14.63;;;;;;;;;;5057518;28;20032;-65
2023/12/03 04:06:42;;;;;;;34.05;15.73;;;;;;;;;;5049062;28;20033;-65
2023/12/03 04:09:07;;;;;;;33.17;13.95;;;;;;;;;;5049158;28;20033;-66
2023/12/03 04:11:42;;;;;;;26.75;13.50;;;;;;;;;;5051295;28;20025;-65
2023/12/03 04:14:08;;;;;;;26.52;13.77;;;;;;;;;;5045853;28;20033;-65
2023/12/03 04:16:34;;;;;;;31.77;14.85;;;;;;;;;;5044645;28;20025;-65
2023/12/03 04:18:59;;;;;;;23.58;12.38;;;;;;;;;;5062849;28;20016;-65
2023/12/03 04:21:24;;;;;;;26.77;12.90;;;;;;;;;;5054521;28;20034;-65
2023/12/03 04:23:49;;;;;;;25.38;13.00;;;;;;;;;;5047745;28;20078;-65
2023/12/03 04:26:15;;;;;;;24.65;14.45;;;;;;;;;;5059440;28;20028;-65
2023/12/03 04:28:41;;;;;;;25.50;12.68;;;;;;;;;;5053556;28;20037;-64
2023/12/03 04:31:15;;;;;;;28.20;14.45;;;;;;;;;;5040815;28;20072;-64
2023/12/03 04:33:40;;;;;;;26.58;13.85;;;;;;;;;;5050681;28;20032;-65
2023/12/03 04:36:07;;;;;;;24.98;13.40;;;;;;;;;;5057214;28;20113;-64
2023/12/03 04:38:32;;;;;;;33.63;15.00;;;;;;;;;;5041164;28;20035;-64
2023/12/03 04:40:57;;;;;;;32.45;14.60;;;;;;;;;;5051625;28;20012;-64
2023/12/03 04:43:23;;;;;;;28.42;13.93;;;;;;;;;;5055438;28;20491;-64
2023/12/03 04:45:48;;;;;;;23.45;12.10;;;;;;;;;;5052788;28;20495;-64
2023/12/03 04:48:13;;;;;;;27.48;12.75;;;;;;;;;;5052581;28;20476;-64
2023/12/03 04:50:38;;;;;;;31.60;13.60;;;;;;;;;;5053433;28;20071;-64
2023/12/03 04:53:03;;;;;;;30.95;13.68;;;;;;;;;;5042421;28;20120;-64
2023/12/03 04:55:29;;;;;;;22.38;12.55;;;;;;;;;;5047000;28;20543;-64
2023/12/03 04:57:54;;;;;;;28.13;14.15;;;;;;;;;;5043435;28;20147;-64
2023/12/03 05:00:19;;;;;;;26.00;14.55;;;;;;;;;;5060223;28;20091;-65
2023/12/03 05:02:44;;;;;;;25.90;13.25;;;;;;;;;;5057318;28;20437;-65
2023/12/03 05:05:10;;;;;;;28.23;14.60;;;;;;;;;;5050930;28;20043;-65
2023/12/03 05:07:35;;;;;;;28.42;14.90;;;;;;;;;;5045245;28;20034;-65
2023/12/03 05:10:00;;;;;;;25.45;13.45;;;;;;;;;;5061611;28;20028;-65
2023/12/03 05:12:25;;;;;;;33.28;15.73;;;;;;;;;;5055797;28;20031;-65
2023/12/03 05:14:51;;;;;;;30.33;15.85;;;;;;;;;;5045576;28;20390;-64
2023/12/03 05:17:16;;;;;;;32.10;15.07;;;;;;;;;;5051941;28;20332;-65
2023/12/03 05:19:42;;;;;;;29.55;14.15;;;;;;;;;;5054428;28;20486;-64
2023/12/03 05:22:07;;;;;;;26.48;14.05;;;;;;;;;;5051972;28;20036;-64
2023/12/03 05:24:32;;;;;;;31.13;14.52;;;;;;;;;;5051672;28;20068;-64
2023/12/03 05:26:57;;;;;;;36.95;15.02;;;;;;;;;;5052353;28;20110;-64
2023/12/03 05:29:24;;;;;;;27.77;13.75;;;;;;;;;;5055648;28;20468;-65
2023/12/03 05:31:50;;;;;;;33.17;15.13;;;;;;;;;;5052140;28;20029;-65
2023/12/03 05:34:15;;;;;;;32.13;16.02;;;;;;;;;;5052209;28;20104;-64
2023/12/03 05:36:40;;;;;;;31.83;14.13;;;;;;;;;;5053386;28;20055;-64
2023/12/03 05:39:05;;;;;;;30.77;14.00;;;;;;;;;;5054516;28;20036;-64
2023/12/03 05:41:36;;;;;;;29.42;14.10;;;;;;;;;;5044527;28;20555;-64
2023/12/03 05:44:02;;;;;;;30.40;15.82;;;;;;;;;;5048105;28;20483;-64
2023/12/03 05:46:27;;;;;;;26.02;14.50;;;;;;;;;;5053049;28;20043;-64
2023/12/03 05:48:52;;;;;;;31.23;15.70;;;;;;;;;;5057049;28;20029;-64
2023/12/03 05:51:18;;;;;;;33.42;15.80;;;;;;;;;;5051936;28;20108;-64
2023/12/03 05:53:43;;;;;;;33.00;16.67;;;;;;;;;;5051812;28;20455;-64
2023/12/03 05:56:09;;;;;;;25.77;14.40;;;;;;;;;;5051254;28;20108;-64
2023/12/03 05:58:34;;;;;;;36.85;17.23;;;;;;;;;;5051763;28;20033;-64
2023/12/03 06:00:59;;;;;;;40.10;16.83;;;;;;;;;;5052986;28;20036;-64
2023/12/03 06:03:25;;;;;;;28.95;15.40;;;;;;;;;;5058419;28;20037;-65
2023/12/03 06:05:50;;;;;;;31.23;14.65;;;;;;;;;;5051430;28;20460;-64
2023/12/03 06:08:15;;;;;;;36.40;15.50;;;;;;;;;;5051751;28;20387;-64
2023/12/03 06:10:40;;;;;;;33.90;16.20;;;;;;;;;;5058375;28;20021;-64
2023/12/03 06:13:06;;;;;;;30.20;14.80;;;;;;;;;;5051524;28;20364;-64
2023/12/03 06:15:31;;;;;;;32.67;17.08;;;;;;;;;;5051478;28;20040;-64
2023/12/03 06:17:56;;;;;;;33.63;16.30;;;;;;;;;;5054919;28;20012;-64
2023/12/03 06:20:21;;;;;;;34.03;16.45;;;;;;;;;;5051412;28;20041;-64
2023/12/03 06:22:47;;;;;;;33.20;15.48;;;;;;;;;;5051564;28;20021;-65
2023/12/03 06:25:12;;;;;;;27.65;16.13;;;;;;;;;;5051155;28;20033;-64
2023/12/03 06:27:37;;;;;;;32.25;16.05;;;;;;;;;;5051023;28;20033;-64
2023/12/03 06:30:03;;;;;;;29.23;15.45;;;;;;;;;;5051204;28;20056;-64
2023/12/03 06:32:28;;;;;;;26.90;14.57;;;;;;;;;;5050841;28;20039;-64
2023/12/03 06:34:53;;;;;;;31.42;15.60;;;;;;;;;;5051684;28;20017;-64
2023/12/03 06:37:18;;;;;;;29.30;16.10;;;;;;;;;;5051318;28;20031;-64
2023/12/03 06:39:44;;;;;;;30.98;15.95;;;;;;;;;;5059419;28;20123;-64
2023/12/03 06:42:09;;;;;;;33.95;15.27;;;;;;;;;;5051278;28;20072;-64
2023/12/03 06:44:34;;;;;;;35.53;15.23;;;;;;;;;;5057168;28;20033;-64
2023/12/03 06:47:00;;;;;;;31.13;16.50;;;;;;;;;;5056853;28;20029;-64
2023/12/03 06:49:25;;;;;;;28.05;15.23;;;;;;;;;;5058165;28;20037;-64
2023/12/03 06:51:51;;;;;;;32.00;15.82;;;;;;;;;;5053086;28;20025;-63
2023/12/03 06:54:16;;;;;;;30.45;14.43;;;;;;;;;;5050867;28;20124;-64
2023/12/03 06:56:41;;;;;;;37.67;15.55;;;;;;;;;;5051191;28;20104;-64
2023/12/03 06:59:06;;;;;;;29.90;15.85;;;;;;;;;;5053575;28;20028;-64
2023/12/03 07:01:32;;;;;;;31.17;15.37;;;;;;;;;;5050747;28;20116;-65
2023/12/03 07:03:57;;;;;;;27.17;14.73;;;;;;;;;;5050306;28;20285;-65
2023/12/03 07:06:22;;;;;;;38.20;15.77;;;;;;;;;;5054206;28;20103;-64
2023/12/03 07:08:47;;;;;;;28.17;15.20;;;;;;;;;;5056984;28;20021;-64
2023/12/03 07:11:13;;;;;;;33.25;16.08;;;;;;;;;;5063106;28;20082;-64
2023/12/03 07:13:38;;;;;;;31.23;14.25;;;;;;;;;;5054032;28;20025;-64
2023/12/03 07:16:04;;;;;;;29.95;15.45;;;;;;;;;;5054191;28;20017;-65
2023/12/03 07:18:29;;;;;;;31.48;15.63;;;;;;;;;;5054212;28;20475;-65
2023/12/03 07:20:54;;;;;;;25.70;14.23;;;;;;;;;;5057827;28;20105;-64
2023/12/03 07:23:20;;;;;;;30.83;16.83;;;;;;;;;;5054449;28;20059;-65
2023/12/03 07:25:46;;;;;;;33.00;15.18;;;;;;;;;;5053845;28;20060;-64
2023/12/03 07:28:11;;;;;;;29.17;15.55;;;;;;;;;;5054349;28;20049;-65
2023/12/03 07:30:36;;;;;;;31.10;15.10;;;;;;;;;;5036073;28;20085;-64
2023/12/03 07:33:03;;;;;;;26.77;14.68;;;;;;;;;;5053664;28;20017;-64
2023/12/03 07:35:28;;;;;;;29.55;14.55;;;;;;;;;;5054108;28;20021;-64
2023/12/03 07:37:53;;;;;;;29.38;15.52;;;;;;;;;;5055586;28;20024;-64
2023/12/03 07:40:18;;;;;;;32.80;15.98;;;;;;;;;;5058964;28;20029;-64
2023/12/03 07:42:43;;;;;;;32.20;15.70;;;;;;;;;;5067379;28;20028;-64
2023/12/03 07:45:09;;;;;;;27.67;14.07;;;;;;;;;;5054086;28;20029;-64
2023/12/03 07:47:34;;;;;;;32.17;16.05;;;;;;;;;;5053503;28;20332;-64
2023/12/03 07:49:59;;;;;;;29.63;15.50;;;;;;;;;;5053841;28;20102;-66
2023/12/03 07:52:24;;;;;;;27.02;13.40;;;;;;;;;;5053848;28;20025;-64
2023/12/03 07:54:50;;;;;;;31.80;14.63;;;;;;;;;;5054453;28;20055;-63
2023/12/03 07:57:15;;;;;;;24.52;13.23;;;;;;;;;;5061672;28;20028;-65
2023/12/03 07:59:40;;;;;;;23.70;13.68;;;;;;;;;;5053875;28;20442;-64
2023/12/03 08:02:06;;;;;;;28.48;14.35;;;;;;;;;;5065480;28;20024;-64
2023/12/03 08:04:31;;;;;;;24.40;14.52;;;;;;;;;;5055339;28;20036;-65
2023/12/03 08:06:56;;;;;;;32.58;15.20;;;;;;;;;;5044656;28;20039;-64
2023/12/03 08:09:21;;;;;;;27.42;13.93;;;;;;;;;;5012992;28;20041;-64
2023/12/03 08:11:47;;;;;;;28.48;13.93;;;;;;;;;;5025825;28;20020;-64
2023/12/03 08:14:13;;;;;;;28.70;14.10;;;;;;;;;;5038579;28;20021;-64
2023/12/03 08:16:38;;;;;;;27.15;15.00;;;;;;;;;;5052039;28;20158;-64
2023/12/03 08:19:03;;;;;;;21.90;12.70;;;;;;;;;;5054190;28;20025;-65
2023/12/03 08:21:30;;;;;;;23.45;11.85;;;;;;;;;;5053409;28;20375;-64
2023/12/03 08:23:55;;;;;;;27.52;13.90;;;;;;;;;;5055320;28;20231;-64
2023/12/03 08:26:21;;;;;;;23.42;12.73;;;;;;;;;;5053382;28;20582;-65
2023/12/03 08:28:46;;;;;;;23.73;14.65;;;;;;;;;;5053126;28;20103;-64
2023/12/03 08:31:11;;;;;;;26.80;12.73;;;;;;;;;;5053052;28;20357;-64
2023/12/03 08:33:36;;;;;;;26.95;11.73;;;;;;;;;;5058348;28;20029;-64
2023/12/03 08:36:02;;;;;;;26.20;11.53;;;;;;;;;;5052998;28;20045;-64
2023/12/03 08:38:27;;;;;;;20.38;11.20;;;;;;;;;;5053263;28;20351;-64
2023/12/03 08:40:52;;;;;;;26.17;11.95;;;;;;;;;;5053620;28;20025;-64
2023/12/03 08:43:17;;;;;;;24.48;12.18;;;;;;;;;;5053008;28;20025;-64
2023/12/03 08:45:43;;;;;;;23.20;10.98;;;;;;;;;;5063058;28;20056;-65
2023/12/03 08:48:08;;;;;;;24.80;13.37;;;;;;;;;;5054622;28;20017;-64
2023/12/03 08:50:33;;;;;;;25.13;12.25;;;;;;;;;;5064212;28;20290;-64
2023/12/03 08:52:58;;;;;;;22.58;11.35;;;;;;;;;;5045543;28;20016;-64
2023/12/03 08:55:24;;;;;;;22.63;11.52;;;;;;;;;;5023641;28;20090;-64
2023/12/03 08:57:50;;;;;;;21.58;11.43;;;;;;;;;;5025624;28;20044;-63
2023/12/03 09:00:15;;;;;;;20.10;11.07;;;;;;;;;;5013738;28;20027;-63
2023/12/03 09:02:43;;;;;;;17.80;11.00;;;;;;;;;;5014868;28;20874;-66
2023/12/03 09:05:09;;;;;;;21.42;10.68;;;;;;;;;;5026820;28;20064;-64
2023/12/03 09:07:35;;;;;;;21.02;10.70;;;;;;;;;;5015922;28;20032;-64
2023/12/03 09:10:00;;;;;;;18.35;10.32;;;;;;;;;;5015318;28;20136;-64
2023/12/03 09:12:25;;;;;;;22.80;11.73;;;;;;;;;;5014687;28;21007;-64
2023/12/03 09:14:51;;;;;;;18.55;10.73;;;;;;;;;;5019748;28;20070;-64
2023/12/03 09:17:16;;;;;;;18.65;9.88;;;;;;;;;;5014861;28;20021;-64
2023/12/03 09:19:41;;;;;;;20.88;9.93;;;;;;;;;;5014640;28;20032;-64
2023/12/03 09:22:06;;;;;;;17.48;9.93;;;;;;;;;;5014768;28;20089;-64
2023/12/03 09:24:32;;;;;;;18.90;10.33;;;;;;;;;;5042952;28;20029;-64
2023/12/03 09:26:57;;;;;;;19.20;10.82;;;;;;;;;;5048750;28;20272;-64
2023/12/03 09:29:22;;;;;;;16.83;9.60;;;;;;;;;;5047876;28;20019;-64
2023/12/03 09:31:47;;;;;;;16.33;9.02;;;;;;;;;;5062495;28;20383;-64
2023/12/03 09:34:13;;;;;;;17.80;10.13;;;;;;;;;;5052426;28;20029;-64
2023/12/03 09:36:38;;;;;;;17.60;10.43;;;;;;;;;;5051862;28;20075;-64
2023/12/03 09:39:04;;;;;;;23.83;10.90;;;;;;;;;;5054374;28;20523;-64
2023/12/03 09:41:30;;;;;;;18.25;8.95;;;;;;;;;;5055980;28;20093;-65
2023/12/03 09:43:59;;;;;;;18.95;10.55;;;;;;;;;;5054493;28;20464;-64
2023/12/03 09:46:27;;;;;;;18.20;10.13;;;;;;;;;;5054038;28;20032;-66
2023/12/03 09:48:52;;;;;;;18.58;9.75;;;;;;;;;;5058332;28;20024;-63
2023/12/03 09:51:18;;;;;;;24.33;10.15;;;;;;;;;;5064046;28;20020;-63
2023/12/03 09:53:47;;;;;;;15.93;8.60;;;;;;;;;;5048079;28;20024;-63
2023/12/03 09:56:13;;;;;;;17.75;9.88;;;;;;;;;;5042070;28;20021;-69
2023/12/03 09:58:38;;;;;;;17.80;8.15;;;;;;;;;;5049184;28;20028;-68
2023/12/03 10:01:04;;;;;;;19.35;9.05;;;;;;;;;;5052976;28;20224;-65
2023/12/03 10:03:29;;;;;;;16.63;7.82;;;;;;;;;;5049566;28;20025;-65
2023/12/03 10:05:56;;;;;;;16.23;9.20;;;;;;;;;;5051415;28;20040;-65
2023/12/03 10:08:22;;;;;;;15.27;9.05;;;;;;;;;;5051386;28;20032;-65
2023/12/03 10:10:51;;;;;;;19.00;8.25;;;;;;;;;;5033452;28;20024;-65
2023/12/03 10:13:17;;;;;;;15.10;8.25;;;;;;;;;;5024149;28;20016;-65
2023/12/03 10:15:43;;;;;;;16.70;8.57;;;;;;;;;;5061997;28;20032;-65
2023/12/03 10:18:08;;;;;;;16.63;8.73;;;;;;;;;;5051577;28;20027;-65
2023/12/03 10:20:34;;;;;;;18.45;8.90;;;;;;;;;;5051056;28;20033;-65
2023/12/03 10:23:00;;;;;;;15.85;9.18;;;;;;;;;;5051491;28;20052;-65
2023/12/03 10:25:26;;;;;;;20.48;9.25;;;;;;;;;;5050985;28;20549;-65
2023/12/03 10:27:52;;;;;;;17.80;9.02;;;;;;;;;;5051521;28;20029;-65
2023/12/03 10:30:17;;;;;;;16.67;8.90;;;;;;;;;;5059627;28;20675;-65
2023/12/03 10:32:44;;;;;;;20.35;9.20;;;;;;;;;;5051109;28;20037;-65
2023/12/03 10:35:09;;;;;;;17.80;9.27;;;;;;;;;;5024490;28;20016;-65
2023/12/03 10:37:35;;;;;;;18.33;9.07;;;;;;;;;;5018623;28;20020;-64
2023/12/03 10:40:00;;;;;;;18.70;10.27;;;;;;;;;;5020945;28;20164;-65
2023/12/03 10:42:26;;;;;;;18.63;9.10;;;;;;;;;;5043480;28;20035;-65
2023/12/03 10:44:51;;;;;;;14.82;8.82;;;;;;;;;;5055791;28;20051;-65
2023/12/03 10:47:17;;;;;;;15.18;8.80;;;;;;;;;;5050740;28;20071;-64
2023/12/03 10:49:44;;;;;;;17.55;9.18;;;;;;;;;;5051374;28;20025;-64
2023/12/03 10:52:09;;;;;;;14.45;8.50;;;;;;;;;;5052604;28;20029;-64
2023/12/03 10:54:34;;;;;;;16.00;8.77;;;;;;;;;;5056320;28;20040;-64
2023/12/03 10:57:01;;;;;;;15.63;9.57;;;;;;;;;;5050899;28;20104;-64
2023/12/03 10:59:27;;;;;;;19.90;8.90;;;;;;;;;;5052173;28;20041;-65
2023/12/03 11:01:53;;;;;;;14.90;8.13;;;;;;;;;;5062609;28;20041;-64
2023/12/03 11:04:25;;;;;;;15.90;9.43;;;;;;;;;;5040201;28;20044;-64
2023/12/03 11:06:53;;;;;;;16.60;8.35;;;;;;;;;;5030673;28;20025;-64
2023/12/03 11:09:19;;;;;;;16.13;8.73;;;;;;;;;;5060815;28;20024;-64
2023/12/03 11:11:45;;;;;;;17.92;10.30;;;;;;;;;;5062664;28;20395;-64
2023/12/03 11:14:10;;;;;;;18.02;9.45;;;;;;;;;;5048666;28;20083;-64
2023/12/03 11:16:42;;;;;;;17.17;9.07;;;;;;;;;;5067969;28;20103;-64
2023/12/03 11:19:15;;;;;;;19.70;9.10;;;;;;;;;;5056521;28;20029;-64
2023/12/03 11:21:59;;;;;;;18.73;9.35;;;;;;;;;;5059504;28;20033;-64
2023/12/03 11:24:36;;;;;;;13.75;8.60;;;;;;;;;;5050321;28;20083;-64
2023/12/03 11:27:02;;;;;;;16.17;8.93;;;;;;;;;;5050568;28;20032;-64
2023/12/03 11:29:46;;;;;;;16.83;8.65;;;;;;;;;;5055447;28;20395;-64
2023/12/03 11:32:11;;;;;;;;;;;;;;;;;;5042568;28;20465;-64
2023/12/03 11:34:37;;;;;;;16.70;8.80;;;;;;;;;;5062390;28;19927;-63
2023/12/03 11:37:02;;;;;;;16.55;9.07;;;;;;;;;;5050555;28;20099;-63
2023/12/03 11:39:28;;;;;;;17.75;9.65;;;;;;;;;;5061151;28;20055;-64
2023/12/03 11:42:00;;;;;;;20.48;9.00;;;;;;;;;;5050346;28;20056;-63
2023/12/03 11:44:26;;;;;;;17.15;9.73;;;;;;;;;;5050204;28;20029;-64
2023/12/03 11:47:07;;;;;;;15.63;7.97;;;;;;;;;;5054970;28;20379;-64
2023/12/03 11:49:33;;;;;;;15.40;9.50;;;;;;;;;;5051076;28;20017;-64
2023/12/03 11:51:58;;;;;;;18.13;8.32;;;;;;;;;;5051840;28;20514;-64
2023/12/03 11:54:24;;;;;;;14.43;7.97;;;;;;;;;;5053461;28;20044;-64
2023/12/03 11:56:50;;;;;;;18.42;9.38;;;;;;;;;;5053914;28;20068;-64
2023/12/03 11:59:15;;;;;;;14.95;7.97;;;;;;;;;;5053307;28;20017;-64
2023/12/03 12:01:40;;;;;;;15.25;8.32;;;;;;;;;;5053743;28;20533;-64
2023/12/03 12:04:06;;;;;;;15.02;7.78;;;;;;;;;;5053912;28;20032;-64
2023/12/03 12:06:32;;;;;;;13.00;7.47;;;;;;;;;;5050402;28;20028;-64
2023/12/03 12:08:58;;;;;;;12.23;7.18;;;;;;;;;;5065898;28;20471;-64
2023/12/03 12:11:24;;;;;;;13.75;6.97;;;;;;;;;;5066858;28;20032;-64
2023/12/03 12:13:49;;;;;;;15.68;7.65;;;;;;;;;;5053634;28;20475;-63
2023/12/03 12:16:15;;;;;;;15.88;8.55;;;;;;;;;;5052880;28;20019;-64
2023/12/03 12:18:40;;;;;;;15.18;8.57;;;;;;;;;;5058976;28;20137;-64
2023/12/03 12:21:06;;;;;;;12.40;7.13;;;;;;;;;;5052897;28;20044;-64
2023/12/03 12:23:32;;;;;;;19.08;7.75;;;;;;;;;;5053997;28;20056;-64
2023/12/03 12:25:57;;;;;;;14.32;7.78;;;;;;;;;;5053053;28;20471;-64
2023/12/03 12:28:22;;;;;;;16.00;8.25;;;;;;;;;;5061755;28;20032;-64
2023/12/03 12:30:47;;;;;;;16.42;8.70;;;;;;;;;;5054058;28;20082;-64
2023/12/03 12:33:13;;;;;;;14.57;8.30;;;;;;;;;;5053310;28;20031;-64
2023/12/03 12:35:38;;;;;;;13.50;7.95;;;;;;;;;;5053357;28;20112;-64
2023/12/03 12:38:04;;;;;;;15.07;7.88;;;;;;;;;;5052589;28;20037;-64
2023/12/03 12:40:37;;;;;;;18.05;8.15;;;;;;;;;;5057084;28;20025;-64
2023/12/03 12:43:07;;;;;;;14.35;8.45;;;;;;;;;;5053321;28;20032;-64
2023/12/03 12:45:32;;;;;;;18.52;8.75;;;;;;;;;;5065130;28;20037;-64
2023/12/03 12:47:57;;;;;;;13.20;8.35;;;;;;;;;;5061983;28;20422;-64
2023/12/03 12:50:32;;;;;;;14.25;7.95;;;;;;;;;;5056039;28;20067;-64
2023/12/03 12:52:57;;;;;;;17.65;9.95;;;;;;;;;;5063089;28;20060;-64
2023/12/03 12:55:26;;;;;;;12.77;7.32;;;;;;;;;;5055642;28;20067;-64
2023/12/03 12:57:52;;;;;;;17.52;8.90;;;;;;;;;;5053040;28;20378;-64
2023/12/03 13:00:17;;;;;;;18.70;8.60;;;;;;;;;;5063939;28;20029;-64
2023/12/03 13:02:42;;;;;;;14.88;8.52;;;;;;;;;;5054378;28;20272;-64
2023/12/03 13:05:08;;;;;;;18.02;8.45;;;;;;;;;;5058197;28;20032;-64
2023/12/03 13:07:33;;;;;;;14.70;8.93;;;;;;;;;;5053906;28;20024;-64
2023/12/03 13:09:58;;;;;;;15.43;8.85;;;;;;;;;;5058614;28;20020;-64
2023/12/03 13:12:23;;;;;;;18.02;9.82;;;;;;;;;;5038339;28;20032;-64
2023/12/03 13:14:49;;;;;;;16.05;8.52;;;;;;;;;;5015822;28;20024;-64
2023/12/03 13:17:14;;;;;;;19.17;9.73;;;;;;;;;;5039195;28;20032;-64
2023/12/03 13:19:39;;;;;;;15.57;8.55;;;;;;;;;;5017815;28;20275;-64
2023/12/03 13:22:04;;;;;;;14.85;8.55;;;;;;;;;;5013957;28;20048;-64
2023/12/03 13:24:30;;;;;;;15.40;9.00;;;;;;;;;;5016090;28;20036;-64
2023/12/03 13:26:55;;;;;;;16.65;9.02;;;;;;;;;;5016880;28;20060;-64
2023/12/03 13:29:20;;;;;;;15.77;8.52;;;;;;;;;;5021894;28;20976;-64
2023/12/03 13:31:46;;;;;;;15.25;8.95;;;;;;;;;;5025044;28;20988;-64
2023/12/03 13:34:11;;;;;;;18.10;8.43;;;;;;;;;;5013557;28;20078;-64
2023/12/03 13:36:36;;;;;;;20.60;9.65;;;;;;;;;;5014739;28;20171;-64
2023/12/03 13:39:03;;;;;;;16.05;8.35;;;;;;;;;;5020345;28;20020;-64
2023/12/03 13:41:29;;;;;;;17.42;9.10;;;;;;;;;;5034609;28;20028;-65
2023/12/03 13:43:54;;;;;;;18.40;8.43;;;;;;;;;;5018279;28;20037;-64
2023/12/03 13:46:19;;;;;;;18.63;8.82;;;;;;;;;;5025765;28;20042;-65
2023/12/03 13:48:44;;;;;;;15.82;9.05;;;;;;;;;;5013699;28;20029;-64
2023/12/03 13:51:10;;;;;;;14.95;8.23;;;;;;;;;;5017824;28;20032;-64
2023/12/03 13:53:35;;;;;;;16.90;8.27;;;;;;;;;;5017002;28;20024;-64
2023/12/03 13:56:03;;;;;;;16.65;8.55;;;;;;;;;;5029053;28;20016;-64
2023/12/03 13:58:28;;;;;;;14.43;7.57;;;;;;;;;;5055873;28;20017;-64
2023/12/03 14:00:54;;;;;;;14.80;8.10;;;;;;;;;;5057635;28;20034;-64
2023/12/03 14:03:19;;;;;;;15.60;9.23;;;;;;;;;;5065994;28;20020;-64
2023/12/03 14:05:44;;;;;;;18.15;8.68;;;;;;;;;;5051452;28;20021;-65
2023/12/03 14:08:09;;;;;;;16.27;9.47;;;;;;;;;;5039852;28;20029;-65
2023/12/03 14:10:34;;;;;;;16.58;8.68;;;;;;;;;;5065345;28;20255;-64
2023/12/03 14:13:00;;;;;;;16.07;8.87;;;;;;;;;;5048082;28;20036;-65